Time;durP1;ratioP1;P1;durP2;ratioP2;P2;SDS_P1;SDS_P2;PMS_P1;PMS_P2;Temp;Humidity;BMP_temperature;BMP_pressure;BME280_temperature;BME280_humidity;BME280_pressure;Samples;Min_cycle;Max_cycle;Signal;HPM_P1;HPM_P2
2021/01/15 00:01:22;;;;;;;6.57;5.57;;;;;;;7.84;64.21;101539.91;5031791;28;20022;-86
2021/01/15 00:03:48;;;;;;;8.52;6.35;;;;;;;7.90;65.02;101544.88;5029408;28;20029;-86
2021/01/15 00:06:24;;;;;;;7.50;5.97;;;;;;;8.00;63.66;101539.28;5028799;28;20026;-86
2021/01/15 00:08:50;;;;;;;7.35;6.18;;;;;;;8.00;64.69;101540.16;5030345;28;20126;-84
2021/01/15 00:11:30;;;;;;;7.35;6.10;;;;;;;7.94;63.59;101546.47;5029220;28;20113;-86
2021/01/15 00:13:57;;;;;;;7.57;6.55;;;;;;;7.97;63.87;101545.50;5011953;28;20026;-86
2021/01/15 00:16:25;;;;;;;9.65;7.35;;;;;;;7.83;64.44;101543.41;5028545;28;20033;-86
2021/01/15 00:18:52;;;;;;;9.35;7.32;;;;;;;7.91;64.76;101557.03;5031341;28;20026;-87
2021/01/15 00:21:23;;;;;;;9.20;8.23;;;;;;;7.98;65.65;101551.56;5030545;28;20030;-86
2021/01/15 00:23:53;;;;;;;9.20;7.87;;;;;;;7.85;64.37;101552.03;5029688;28;20112;-86
2021/01/15 00:26:21;;;;;;;8.93;8.02;;;;;;;7.93;65.13;101557.81;5029108;28;20283;-86
2021/01/15 00:28:47;;;;;;;10.20;8.77;;;;;;;7.75;65.73;101563.78;5031118;28;20519;-83
2021/01/15 00:31:12;;;;;;;14.27;8.50;;;;;;;7.87;65.66;101560.69;5031421;28;20048;-86
2021/01/15 00:33:38;;;;;;;9.98;8.27;;;;;;;7.85;65.81;101562.50;5030324;28;20475;-86
2021/01/15 00:36:05;;;;;;;9.55;8.48;;;;;;;7.92;65.10;101557.91;5030656;28;20029;-86
2021/01/15 00:38:31;;;;;;;11.82;7.82;;;;;;;7.95;65.13;101563.84;5031292;28;20535;-86
2021/01/15 00:40:58;;;;;;;9.73;8.23;;;;;;;7.91;64.30;101567.50;5028164;28;20168;-84
2021/01/15 00:43:23;;;;;;;10.07;8.55;;;;;;;7.85;65.95;101559.88;5031289;28;20079;-84
2021/01/15 00:45:49;;;;;;;8.73;7.82;;;;;;;7.87;65.65;101563.28;5028486;28;20472;-86
2021/01/15 00:48:14;;;;;;;10.85;8.10;;;;;;;7.94;65.05;101556.94;5031309;28;20025;-86
2021/01/15 00:50:39;;;;;;;11.82;8.80;;;;;;;7.80;66.30;101559.22;5029112;28;20105;-86
2021/01/15 00:53:04;;;;;;;10.85;9.02;;;;;;;7.81;64.16;101554.84;5030254;28;20041;-86
2021/01/15 00:55:30;;;;;;;10.52;8.60;;;;;;;7.86;66.16;101558.13;5030306;28;20018;-86
2021/01/15 00:57:55;;;;;;;12.43;9.38;;;;;;;7.91;66.04;101557.03;5029709;28;20035;-86
2021/01/15 01:00:21;;;;;;;10.23;9.20;;;;;;;7.79;65.50;101557.50;5028917;28;21700;-84
2021/01/15 01:02:46;;;;;;;10.93;9.43;;;;;;;7.83;65.25;101564.31;5029910;28;20022;-84
2021/01/15 01:05:12;;;;;;;10.73;8.95;;;;;;;7.79;65.12;101562.75;5031030;28;20037;-83
2021/01/15 01:07:43;;;;;;;10.30;9.15;;;;;;;7.64;63.20;101568.53;5030048;28;20080;-84
2021/01/15 01:10:10;;;;;;;11.05;9.23;;;;;;;7.53;64.93;101564.56;5031087;28;20080;-84
2021/01/15 01:12:42;;;;;;;12.13;9.18;;;;;;;7.70;64.64;101571.78;5029746;28;20033;-84
2021/01/15 01:15:11;;;;;;;11.75;9.68;;;;;;;7.79;65.47;101577.59;5029649;28;20032;-84
2021/01/15 01:17:37;;;;;;;10.93;9.13;;;;;;;7.75;66.07;101566.38;5033025;28;20159;-84
2021/01/15 01:20:04;;;;;;;12.18;9.93;;;;;;;7.86;65.18;101579.03;5033604;28;20033;-84
2021/01/15 01:22:30;;;;;;;11.73;9.55;;;;;;;7.63;64.48;101580.75;5033048;28;20033;-84
2021/01/15 01:24:55;;;;;;;13.85;10.23;;;;;;;7.64;66.26;101585.09;5034162;28;20052;-84
2021/01/15 01:27:20;;;;;;;11.25;9.98;;;;;;;7.60;65.15;101583.47;5034271;28;20112;-83
2021/01/15 01:29:46;;;;;;;14.63;10.75;;;;;;;7.65;65.08;101588.56;5034673;28;20029;-86
2021/01/15 01:32:11;;;;;;;12.80;9.93;;;;;;;7.64;65.23;101587.72;5034396;28;20464;-86
2021/01/15 01:34:36;;;;;;;10.88;9.70;;;;;;;7.59;65.80;101586.16;5032890;28;20032;-86
2021/01/15 01:37:02;;;;;;;12.20;9.65;;;;;;;7.66;66.13;101585.00;5034313;28;20109;-86
2021/01/15 01:39:27;;;;;;;13.65;10.15;;;;;;;7.72;65.37;101584.78;5034010;28;20100;-84
2021/01/15 01:41:53;;;;;;;11.80;9.77;;;;;;;7.63;65.93;101578.16;5034320;28;20480;-86
2021/01/15 01:44:18;;;;;;;11.27;9.63;;;;;;;7.64;65.54;101587.72;5034030;28;20427;-86
2021/01/15 01:46:43;;;;;;;12.10;10.15;;;;;;;7.66;66.36;101585.00;5034205;28;20036;-86
2021/01/15 01:49:09;;;;;;;12.65;10.63;;;;;;;7.57;65.66;101587.97;5034020;28;20083;-86
2021/01/15 01:51:34;;;;;;;11.10;9.25;;;;;;;7.59;65.47;101592.25;5034057;28;20061;-86
2021/01/15 01:54:00;;;;;;;12.30;10.35;;;;;;;7.52;65.89;101599.47;5033370;28;20076;-87
2021/01/15 01:56:26;;;;;;;12.05;9.90;;;;;;;7.50;66.31;101598.66;5034099;28;20470;-86
2021/01/15 01:58:52;;;;;;;12.38;10.27;;;;;;;7.51;66.55;101608.19;5031734;28;20037;-84
2021/01/15 02:01:18;;;;;;;14.48;10.57;;;;;;;7.55;66.38;101616.78;5031515;28;20438;-84
2021/01/15 02:03:44;;;;;;;12.85;10.13;;;;;;;7.58;66.04;101615.81;5032770;28;20116;-84
2021/01/15 02:06:14;;;;;;;11.68;9.57;;;;;;;7.61;66.23;101621.78;5032381;28;20117;-84
2021/01/15 02:08:39;;;;;;;11.20;9.07;;;;;;;7.65;66.61;101622.53;5031755;28;20124;-86
2021/01/15 02:11:57;;;;;;;10.50;9.15;;;;;;;7.60;66.76;101624.44;5029703;28;20491;-86
2021/01/15 02:14:41;;;;;;;10.63;9.00;;;;;;;7.66;66.49;101632.94;5006750;28;20491;-86
2021/01/15 02:17:12;;;;;;;15.18;10.88;;;;;;;7.58;65.10;101639.34;5030491;28;20037;-86
2021/01/15 02:19:56;;;;;;;13.02;10.20;;;;;;;7.43;65.96;101640.75;5032189;28;20025;-84
2021/01/15 02:22:40;;;;;;;12.77;10.60;;;;;;;7.62;66.90;101648.78;5033234;28;20024;-86
2021/01/15 02:25:17;;;;;;;12.52;10.93;;;;;;;7.62;66.28;101639.19;5033496;28;20056;-86
2021/01/15 02:27:54;;;;;;;13.90;9.77;;;;;;;7.60;65.70;101650.59;5033770;28;20356;-86
2021/01/15 02:30:40;;;;;;;10.23;9.00;;;;;;;7.54;64.83;101655.16;5031107;28;20025;-86
2021/01/15 02:33:18;;;;;;;14.20;10.32;;;;;;;7.49;66.40;101649.22;5032023;28;20025;-86
2021/01/15 02:35:56;;;;;;;14.55;11.20;;;;;;;7.55;65.90;101643.75;5032339;28;20415;-86
2021/01/15 02:38:39;;;;;;;14.80;10.65;;;;;;;7.64;66.39;101646.94;5026450;28;20112;-86
2021/01/15 02:41:04;;;;;;;14.73;10.30;;;;;;;7.54;66.26;101652.53;5019294;28;20029;-86
2021/01/15 02:43:33;;;;;;;12.07;10.40;;;;;;;7.54;65.09;101647.31;5030020;28;20059;-86
2021/01/15 02:46:01;;;;;;;15.90;10.38;;;;;;;7.52;65.99;101658.69;5032167;28;20087;-86
2021/01/15 02:48:30;;;;;;;14.88;10.68;;;;;;;7.50;65.65;101660.50;5027451;28;20029;-86
2021/01/15 02:50:56;;;;;;;15.80;11.73;;;;;;;7.46;65.56;101665.00;5033041;28;20047;-86
2021/01/15 02:53:21;;;;;;;15.15;11.82;;;;;;;7.44;66.94;101665.97;5030406;28;20018;-86
2021/01/15 02:55:47;;;;;;;16.73;12.75;;;;;;;7.43;65.58;101669.50;5031560;28;20542;-86
2021/01/15 02:58:13;;;;;;;15.68;11.98;;;;;;;7.39;65.61;101679.19;5032722;28;20029;-86
2021/01/15 03:00:39;;;;;;;17.60;13.68;;;;;;;7.35;65.29;101674.97;5031483;28;20119;-86
2021/01/15 03:03:38;;;;;;;16.55;12.85;;;;;;;7.51;66.33;101684.00;5031456;28;20025;-86
2021/01/15 03:06:13;;;;;;;20.63;14.57;;;;;;;7.50;65.81;101676.19;5030213;28;20040;-86
2021/01/15 03:08:40;;;;;;;23.63;16.63;;;;;;;7.41;66.80;101677.38;5029712;28;20075;-86
2021/01/15 03:11:06;;;;;;;22.23;16.75;;;;;;;7.27;66.94;101677.00;5029481;28;20079;-86
2021/01/15 03:13:34;;;;;;;23.75;16.58;;;;;;;7.24;66.05;101674.47;5031154;28;20056;-86
2021/01/15 03:16:02;;;;;;;22.42;15.70;;;;;;;7.20;65.66;101693.78;5032522;28;20299;-86
2021/01/15 03:18:29;;;;;;;22.50;16.13;;;;;;;7.10;65.89;101693.22;5031463;28;20060;-86
2021/01/15 03:20:55;;;;;;;24.10;15.05;;;;;;;7.04;65.99;101691.66;5032474;28;20492;-86
2021/01/15 03:23:20;;;;;;;25.88;17.33;;;;;;;7.01;66.83;101689.16;5030201;28;20052;-86
2021/01/15 03:25:46;;;;;;;29.23;18.50;;;;;;;6.91;66.82;101692.94;5030042;28;20029;-86
2021/01/15 03:28:11;;;;;;;22.40;16.25;;;;;;;6.86;66.39;101703.56;5032672;28;20026;-86
2021/01/15 03:30:37;;;;;;;26.48;17.20;;;;;;;6.79;66.48;101703.78;5030204;28;20427;-86
2021/01/15 03:33:05;;;;;;;23.63;15.85;;;;;;;6.68;66.74;101710.22;5030653;28;20020;-86
2021/01/15 03:35:32;;;;;;;24.27;17.40;;;;;;;6.69;67.05;101714.50;5031731;28;20109;-86
2021/01/15 03:38:08;;;;;;;23.95;17.10;;;;;;;6.69;67.76;101703.22;5029540;28;20021;-86
2021/01/15 03:40:42;;;;;;;25.27;17.30;;;;;;;6.65;66.83;101712.06;5030712;28;20041;-86
2021/01/15 03:43:11;;;;;;;26.33;17.70;;;;;;;6.66;66.94;101713.78;5029384;28;20055;-86
2021/01/15 03:45:37;;;;;;;26.83;18.05;;;;;;;6.79;67.75;101717.69;5030297;28;20061;-86
2021/01/15 03:48:03;;;;;;;25.52;18.20;;;;;;;6.68;66.71;101717.19;5029805;28;20045;-86
2021/01/15 03:50:28;;;;;;;22.95;16.63;;;;;;;6.81;67.81;101722.88;5030942;28;20029;-86
2021/01/15 03:52:54;;;;;;;25.10;16.95;;;;;;;6.82;66.84;101729.81;5032022;28;20427;-86
2021/01/15 03:55:19;;;;;;;23.98;15.63;;;;;;;6.68;66.77;101732.84;5030102;28;20455;-86
2021/01/15 03:57:45;;;;;;;26.52;17.17;;;;;;;6.67;67.45;101734.59;5030781;28;20025;-86
2021/01/15 04:00:11;;;;;;;27.27;17.30;;;;;;;6.72;68.23;101732.69;5031955;28;20026;-86
2021/01/15 04:02:37;;;;;;;26.55;16.98;;;;;;;6.70;67.17;101739.72;5030576;28;20390;-86
2021/01/15 04:05:03;;;;;;;24.15;16.25;;;;;;;6.61;68.33;101747.81;5031775;28;20026;-86
2021/01/15 04:07:29;;;;;;;22.77;16.23;;;;;;;6.61;67.54;101753.03;5030535;28;20033;-86
2021/01/15 04:09:55;;;;;;;21.88;16.20;;;;;;;6.61;67.49;101757.41;5029129;28;20048;-86
2021/01/15 04:12:20;;;;;;;23.90;16.08;;;;;;;6.55;67.46;101761.06;5030412;28;20116;-85
2021/01/15 04:14:45;;;;;;;22.98;16.10;;;;;;;6.59;67.67;101759.22;5030773;28;20022;-86
2021/01/15 04:17:11;;;;;;;23.50;15.55;;;;;;;6.53;66.77;101768.91;5030126;28;20025;-86
2021/01/15 04:19:36;;;;;;;22.70;14.90;;;;;;;6.57;68.06;101771.47;5030239;28;20446;-86
2021/01/15 04:22:01;;;;;;;26.45;16.52;;;;;;;6.49;68.00;101769.06;5031604;28;20026;-86
2021/01/15 04:24:27;;;;;;;23.90;15.43;;;;;;;6.53;67.56;101770.69;5029606;28;20036;-86
2021/01/15 04:26:53;;;;;;;27.70;17.15;;;;;;;6.28;67.40;101768.78;5030310;28;20083;-86
2021/01/15 04:29:19;;;;;;;24.00;16.08;;;;;;;6.40;66.90;101778.03;5029876;28;20061;-85
2021/01/15 04:31:45;;;;;;;23.15;15.02;;;;;;;6.45;68.00;101777.88;5030323;28;20107;-85
2021/01/15 04:34:11;;;;;;;21.50;14.27;;;;;;;6.48;67.57;101773.44;5029961;28;20109;-86
2021/01/15 04:36:36;;;;;;;25.85;16.30;;;;;;;6.53;67.53;101779.34;5031406;28;20075;-86
2021/01/15 04:39:03;;;;;;;25.80;16.20;;;;;;;6.55;67.70;101779.31;5030556;28;20025;-86
2021/01/15 04:41:30;;;;;;;23.33;14.82;;;;;;;6.53;68.06;101795.00;5030207;28;20018;-86
2021/01/15 04:43:56;;;;;;;22.48;14.52;;;;;;;6.55;67.89;101797.59;5030381;28;20510;-86
2021/01/15 04:46:23;;;;;;;23.52;15.07;;;;;;;6.37;67.73;101796.38;5030079;28;20025;-86
2021/01/15 04:48:52;;;;;;;20.25;14.60;;;;;;;6.38;66.74;101797.22;5029710;28;20029;-86
2021/01/15 04:51:20;;;;;;;22.38;14.93;;;;;;;6.33;68.41;101799.97;5033039;28;20033;-86
2021/01/15 04:54:06;;;;;;;20.38;13.75;;;;;;;6.39;66.82;101798.94;5031800;28;20491;-86
2021/01/15 04:56:40;;;;;;;19.45;13.10;;;;;;;6.37;66.86;101800.72;5034852;28;20075;-85
2021/01/15 04:59:07;;;;;;;18.52;13.18;;;;;;;6.30;67.25;101798.31;5034633;28;20033;-85
2021/01/15 05:01:41;;;;;;;20.85;14.82;;;;;;;6.27;66.91;101798.38;5032997;28;20030;-86
2021/01/15 05:04:11;;;;;;;19.85;14.13;;;;;;;6.17;67.75;101799.53;5031836;28;20026;-85
2021/01/15 05:06:44;;;;;;;21.23;13.32;;;;;;;6.12;67.62;101809.22;5033591;28;20053;-86
2021/01/15 05:09:23;;;;;;;21.98;13.65;;;;;;;6.07;66.50;101801.53;5033207;28;20029;-85
2021/01/15 05:11:50;;;;;;;20.67;13.25;;;;;;;6.04;67.05;101803.34;5032371;28;20045;-86
2021/01/15 05:14:19;;;;;;;21.95;12.18;;;;;;;5.99;67.36;101807.84;5033577;28;20108;-86
2021/01/15 05:16:47;;;;;;;24.00;14.55;;;;;;;5.94;67.40;101797.50;5031096;28;20376;-86
2021/01/15 05:19:13;;;;;;;19.02;13.35;;;;;;;5.88;66.66;101803.72;5034759;28;20373;-86
2021/01/15 05:21:40;;;;;;;22.17;13.77;;;;;;;5.83;67.10;101800.41;5033789;28;20098;-85
2021/01/15 05:24:06;;;;;;;18.38;13.38;;;;;;;5.89;67.15;101807.19;5033829;28;20033;-86
2021/01/15 05:26:36;;;;;;;20.35;13.15;;;;;;;5.76;67.45;101806.66;5033475;28;20388;-86
2021/01/15 05:29:03;;;;;;;22.13;14.85;;;;;;;5.73;67.79;101793.72;5033828;28;20380;-86
2021/01/15 05:31:46;;;;;;;20.77;12.60;;;;;;;5.75;67.04;101792.75;5033562;28;20021;-86
2021/01/15 05:34:12;;;;;;;19.92;13.30;;;;;;;5.67;67.43;101788.66;5034299;28;20443;-86
2021/01/15 05:36:37;;;;;;;17.63;11.80;;;;;;;5.56;67.13;101796.72;5032759;28;20057;-85
2021/01/15 05:39:15;;;;;;;17.63;11.82;;;;;;;5.57;67.37;101790.63;5032758;28;20383;-86
2021/01/15 05:41:42;;;;;;;20.70;12.93;;;;;;;5.45;68.15;101796.13;5031893;28;20017;-86
2021/01/15 05:44:08;;;;;;;22.50;14.10;;;;;;;5.41;67.75;101813.59;5033451;28;20037;-85
2021/01/15 05:46:34;;;;;;;21.02;14.63;;;;;;;5.27;66.62;101815.66;5031798;28;20030;-86
2021/01/15 05:49:10;;;;;;;19.73;13.43;;;;;;;5.30;68.30;101819.03;5033888;28;20029;-85
2021/01/15 05:51:37;;;;;;;25.48;15.10;;;;;;;5.39;68.73;101817.13;5032710;28;20109;-86
2021/01/15 05:54:04;;;;;;;19.58;13.82;;;;;;;5.43;67.59;101822.22;5033791;28;20014;-86
2021/01/15 05:56:48;;;;;;;22.67;13.85;;;;;;;5.43;67.41;101823.97;5032996;28;20091;-86
2021/01/15 05:59:16;;;;;;;23.52;15.10;;;;;;;5.44;68.04;101810.91;5032528;28;20120;-86
2021/01/15 06:01:53;;;;;;;35.35;16.15;;;;;;;5.42;69.16;101823.13;5031896;28;20056;-86
2021/01/15 06:04:39;;;;;;;23.45;14.20;;;;;;;5.64;66.79;101830.41;5018359;28;20029;-86
2021/01/15 06:07:10;;;;;;;28.20;16.23;;;;;;;5.53;68.20;101826.31;5032044;28;20033;-86
2021/01/15 06:09:36;;;;;;;24.92;15.38;;;;;;;5.59;67.54;101829.66;5030066;28;20029;-86
2021/01/15 06:12:07;;;;;;;32.50;17.25;;;;;;;5.56;68.21;101834.06;5032912;28;20041;-85
2021/01/15 06:14:32;;;;;;;21.52;13.68;;;;;;;5.63;68.18;101832.16;5033766;28;20104;-86
2021/01/15 06:17:09;;;;;;;25.02;16.05;;;;;;;5.80;67.46;101825.69;5031670;28;20136;-86
2021/01/15 06:19:46;;;;;;;26.83;15.05;;;;;;;5.75;66.11;101829.25;5033687;28;20064;-86
2021/01/15 06:22:28;;;;;;;21.65;13.52;;;;;;;5.71;66.24;101842.41;5032511;28;20043;-86
2021/01/15 06:25:04;;;;;;;20.70;13.18;;;;;;;5.75;65.28;101857.06;5033232;28;20036;-85
2021/01/15 06:27:39;;;;;;;20.50;13.55;;;;;;;5.92;66.08;101859.25;5033320;28;20022;-86
2021/01/15 06:30:27;;;;;;;21.90;13.85;;;;;;;5.83;66.12;101854.28;5033219;28;20029;-86
2021/01/15 06:32:53;;;;;;;21.83;12.63;;;;;;;5.89;65.54;101856.72;5030506;28;20388;-85
2021/01/15 06:35:29;;;;;;;21.13;13.32;;;;;;;5.80;65.54;101857.81;5033281;28;20022;-86
2021/01/15 06:38:11;;;;;;;18.52;13.55;;;;;;;5.83;65.63;101865.56;5031923;28;20029;-85
2021/01/15 06:40:37;;;;;;;;;;;;;;;5.82;65.28;101861.22;5032120;28;20022;-85
2021/01/15 06:43:05;;;;;;;20.13;11.85;;;;;;;5.75;65.11;101876.16;5032792;28;19917;-85
2021/01/15 06:45:47;;;;;;;25.05;12.07;;;;;;;5.72;65.65;101870.16;5032092;28;20369;-85
2021/01/15 06:48:18;;;;;;;17.67;11.70;;;;;;;5.53;65.09;101870.63;5029162;28;20045;-85
2021/01/15 06:50:46;;;;;;;20.85;13.50;;;;;;;5.61;65.46;101870.44;5032765;28;20052;-84
2021/01/15 06:53:26;;;;;;;16.65;12.18;;;;;;;5.44;65.95;101881.25;5031888;28;20025;-85
2021/01/15 06:56:03;;;;;;;21.45;12.90;;;;;;;5.57;66.73;101874.00;5032768;28;20082;-85
2021/01/15 06:58:43;;;;;;;22.23;12.15;;;;;;;5.55;66.30;101876.66;5030028;28;20029;-85
2021/01/15 07:01:17;;;;;;;24.20;12.75;;;;;;;5.62;64.92;101873.91;5031405;28;20463;-85
2021/01/15 07:03:51;;;;;;;20.98;12.30;;;;;;;5.42;66.35;101879.56;5022707;28;20380;-84
2021/01/15 07:06:37;;;;;;;20.75;12.73;;;;;;;5.53;65.63;101881.03;5030205;28;20030;-85
2021/01/15 07:09:07;;;;;;;23.77;12.00;;;;;;;5.39;65.59;101890.03;5030312;28;20115;-84
2021/01/15 07:11:33;;;;;;;19.45;13.20;;;;;;;5.02;67.64;101904.75;5029979;28;20471;-84
2021/01/15 07:14:04;;;;;;;18.40;11.38;;;;;;;4.97;67.27;101922.19;5031648;28;20025;-85
2021/01/15 07:16:32;;;;;;;20.58;12.32;;;;;;;4.95;67.28;101939.56;5027198;28;20108;-85
2021/01/15 07:19:15;;;;;;;20.45;12.35;;;;;;;5.42;66.33;101931.66;5031954;28;20056;-84
2021/01/15 07:22:02;;;;;;;21.75;12.23;;;;;;;5.53;66.66;101933.16;5031079;28;20018;-85
2021/01/15 07:24:36;;;;;;;24.73;13.00;;;;;;;5.46;66.74;101921.13;5030342;28;20104;-84
2021/01/15 07:27:02;;;;;;;21.20;13.52;;;;;;;5.15;66.47;101927.03;5031553;28;20112;-84
2021/01/15 07:29:32;;;;;;;17.13;11.50;;;;;;;5.38;65.46;101919.59;5031048;28;20128;-84
2021/01/15 07:32:03;;;;;;;22.50;14.07;;;;;;;5.38;66.54;101922.22;5031471;28;20472;-85
2021/01/15 07:34:30;;;;;;;26.15;13.45;;;;;;;5.28;66.83;101927.63;5031194;28;20076;-84
2021/01/15 07:36:56;;;;;;;18.85;12.40;;;;;;;4.94;66.95;101932.69;5029835;28;20057;-84
2021/01/15 07:39:24;;;;;;;20.63;11.85;;;;;;;5.00;66.69;101942.97;5030663;28;20075;-84
2021/01/15 07:41:54;;;;;;;24.30;12.30;;;;;;;5.27;65.65;101943.25;5029801;28;20037;-84
2021/01/15 07:44:22;;;;;;;23.20;13.07;;;;;;;5.10;65.81;101949.69;5029454;28;20117;-84
2021/01/15 07:46:48;;;;;;;17.17;11.65;;;;;;;5.21;66.21;101948.59;5030109;28;20021;-84
2021/01/15 07:49:13;;;;;;;20.33;12.65;;;;;;;5.22;65.58;101937.31;5030464;28;20041;-84
2021/01/15 07:51:39;;;;;;;23.02;11.55;;;;;;;5.27;65.84;101930.25;5030429;28;20434;-83
2021/01/15 07:54:04;;;;;;;19.50;13.20;;;;;;;4.94;66.55;101949.13;5061992;28;20033;-83
2021/01/15 07:56:31;;;;;;;19.33;12.13;;;;;;;4.95;66.99;101947.38;5030596;28;20033;-83
2021/01/15 07:58:57;;;;;;;21.58;13.68;;;;;;;5.06;66.62;101936.78;5030119;28;20087;-83
2021/01/15 08:01:22;;;;;;;29.05;13.70;;;;;;;4.93;66.63;101937.00;5031012;28;20037;-83
2021/01/15 08:03:52;;;;;;;19.95;12.68;;;;;;;4.86;66.82;101939.75;5029613;28;20034;-84
2021/01/15 08:06:19;;;;;;;28.73;13.75;;;;;;;5.15;66.80;101953.06;5047566;28;20036;-84
2021/01/15 08:09:03;;;;;;;21.73;13.05;;;;;;;5.06;66.15;101958.44;5021987;28;20033;-84
2021/01/15 08:11:30;;;;;;;18.50;12.18;;;;;;;5.21;66.92;101964.22;5029226;28;20028;-84
2021/01/15 08:14:25;;;;;;;19.40;12.55;;;;;;;4.68;68.21;101975.66;5031359;28;20029;-84
2021/01/15 08:16:51;;;;;;;20.02;12.10;;;;;;;5.09;66.56;101966.19;5022186;28;20025;-83
2021/01/15 08:19:22;;;;;;;20.08;12.02;;;;;;;5.19;65.96;101964.25;5030356;28;20075;-83
2021/01/15 08:21:49;;;;;;;18.85;12.43;;;;;;;5.24;66.20;101979.81;5031473;28;20387;-84
2021/01/15 08:24:14;;;;;;;27.92;13.52;;;;;;;4.85;67.38;101982.28;5030441;28;20083;-83
2021/01/15 08:26:50;;;;;;;24.95;13.02;;;;;;;5.07;66.46;101986.19;5034212;28;20038;-83
2021/01/15 08:29:17;;;;;;;20.55;13.10;;;;;;;5.12;67.09;101983.50;5032420;28;20112;-86
2021/01/15 08:31:43;;;;;;;25.17;13.63;;;;;;;5.12;66.88;101984.38;5033825;28;20481;-85
2021/01/15 08:34:11;;;;;;;22.98;13.35;;;;;;;5.30;66.80;101987.50;5034724;28;20037;-84
2021/01/15 08:36:42;;;;;;;21.35;12.82;;;;;;;5.41;66.32;101993.34;5034644;28;20021;-84
2021/01/15 08:39:08;;;;;;;23.70;13.95;;;;;;;5.24;66.33;101987.63;5032832;28;20052;-84
2021/01/15 08:41:35;;;;;;;19.75;12.48;;;;;;;5.25;65.83;101977.19;5029332;28;20391;-83
2021/01/15 08:44:01;;;;;;;20.90;12.38;;;;;;;5.33;65.34;101984.81;5030567;28;20029;-81
2021/01/15 08:46:27;;;;;;;29.88;13.68;;;;;;;5.21;66.45;101983.31;5030092;28;20053;-83
2021/01/15 08:48:52;;;;;;;25.90;13.23;;;;;;;5.13;66.19;101985.22;5031914;28;20487;-83
2021/01/15 08:51:21;;;;;;;19.00;11.23;;;;;;;5.37;66.27;101983.84;5025718;28;20025;-82
2021/01/15 08:54:10;;;;;;;20.00;13.27;;;;;;;5.25;66.54;101985.00;5028404;28;20395;-83
2021/01/15 08:56:35;;;;;;;26.80;13.68;;;;;;;5.27;65.92;101987.53;5029680;28;20037;-82
2021/01/15 08:59:02;;;;;;;21.85;12.68;;;;;;;5.29;65.73;101985.75;5031537;28;20029;-83
2021/01/15 09:01:29;;;;;;;20.25;13.15;;;;;;;5.40;65.22;101994.22;5034036;28;20404;-83
2021/01/15 09:03:56;;;;;;;22.75;13.15;;;;;;;5.15;66.63;102005.16;5033438;28;20434;-83
2021/01/15 09:06:24;;;;;;;17.90;12.77;;;;;;;5.28;65.18;102004.91;5035581;28;20032;-83
2021/01/15 09:08:53;;;;;;;23.05;13.65;;;;;;;5.41;65.73;102001.16;5031714;28;20592;-82
2021/01/15 09:11:19;;;;;;;22.50;13.50;;;;;;;5.27;65.31;101992.75;5026109;28;20048;-82
2021/01/15 09:13:45;;;;;;;21.83;13.52;;;;;;;5.47;65.51;101995.81;5029988;28;20025;-83
2021/01/15 09:16:16;;;;;;;24.08;12.57;;;;;;;5.57;65.15;102005.13;5032320;28;20030;-82
2021/01/15 09:18:42;;;;;;;24.50;12.20;;;;;;;5.40;65.78;102009.84;5019284;28;20072;-82
2021/01/15 09:21:08;;;;;;;19.48;12.55;;;;;;;5.42;65.64;102013.28;5029087;28;20091;-82
2021/01/15 09:23:33;;;;;;;22.65;13.27;;;;;;;5.32;65.61;102028.22;5030808;28;20451;-82
2021/01/15 09:25:58;;;;;;;23.35;12.07;;;;;;;5.43;65.85;102032.34;5032995;28;20113;-82
2021/01/15 09:28:24;;;;;;;22.30;13.27;;;;;;;5.50;65.04;102034.81;5023174;28;20016;-83
2021/01/15 09:30:50;;;;;;;23.75;13.10;;;;;;;5.60;65.56;102042.44;5029305;28;20030;-84
2021/01/15 09:33:15;;;;;;;22.50;12.02;;;;;;;5.57;65.03;102051.19;5032526;28;20494;-82
2021/01/15 09:35:41;;;;;;;18.13;11.82;;;;;;;5.61;65.07;102059.78;5032451;28;20034;-83
2021/01/15 09:38:06;;;;;;;19.77;12.30;;;;;;;5.73;64.59;102064.75;5023546;28;20811;-85
2021/01/15 09:40:32;;;;;;;17.38;11.95;;;;;;;5.74;64.46;102064.69;5024140;28;20033;-85
2021/01/15 09:42:57;;;;;;;24.13;12.27;;;;;;;5.83;63.72;102065.41;5029496;28;20029;-89
2021/01/15 09:45:22;;;;;;;19.92;11.43;;;;;;;5.73;63.35;102077.78;5029599;28;20041;-83
2021/01/15 09:47:48;;;;;;;25.08;12.25;;;;;;;5.69;64.86;102084.81;5029332;28;20033;-84
2021/01/15 09:50:14;;;;;;;21.33;11.95;;;;;;;5.67;64.78;102085.75;5021691;28;20068;-83
2021/01/15 09:52:39;;;;;;;20.30;12.32;;;;;;;5.60;64.93;102078.94;5031039;28;20100;-83
2021/01/15 09:55:05;;;;;;;23.27;12.68;;;;;;;5.68;64.50;102080.47;5029603;28;20282;-83
2021/01/15 09:57:30;;;;;;;22.65;12.48;;;;;;;5.80;64.24;102078.50;5038115;28;20101;-83
2021/01/15 09:59:57;;;;;;;23.58;12.93;;;;;;;5.89;64.64;102070.50;5017564;28;20064;-83
2021/01/15 10:02:22;;;;;;;25.20;14.15;;;;;;;5.88;64.21;102074.84;5032181;28;20029;-83
2021/01/15 10:04:47;;;;;;;24.52;13.63;;;;;;;5.93;64.54;102080.81;5031672;28;20041;-83
2021/01/15 10:07:13;;;;;;;20.02;13.32;;;;;;;5.90;63.79;102078.25;5032057;28;20652;-83
2021/01/15 10:09:38;;;;;;;24.10;12.52;;;;;;;5.97;63.24;102088.63;5028872;28;20033;-83
2021/01/15 10:12:04;;;;;;;17.98;12.30;;;;;;;6.07;63.12;102082.31;5028123;28;20060;-83
2021/01/15 10:14:29;;;;;;;19.75;11.88;;;;;;;5.68;63.84;102082.22;5028247;28;20025;-83
2021/01/15 10:16:55;;;;;;;23.10;12.73;;;;;;;5.98;63.82;102090.31;5036595;28;20065;-82
2021/01/15 10:19:20;;;;;;;24.98;13.10;;;;;;;6.08;63.54;102086.63;5033215;28;20076;-83
2021/01/15 10:21:47;;;;;;;18.38;12.27;;;;;;;6.13;63.45;102088.22;5031874;28;20044;-82
2021/01/15 10:24:13;;;;;;;24.38;13.13;;;;;;;6.30;62.18;102081.75;5029590;28;20025;-84
2021/01/15 10:27:34;;;;;;;20.38;11.52;;;;;;;6.24;62.76;102088.00;5068110;28;20402;-91
2021/01/15 10:32:03;;;;;;;18.95;11.98;;;;;;;6.46;61.91;102098.78;5050671;28;20397;-88
2021/01/15 10:34:30;;;;;;;16.65;11.32;;;;;;;6.54;62.28;102096.00;5051534;28;20029;-83
2021/01/15 10:36:56;;;;;;;19.73;12.32;;;;;;;6.65;61.93;102093.97;5049681;28;20455;-83
2021/01/15 10:39:21;;;;;;;25.42;13.70;;;;;;;6.05;62.68;102086.69;5052040;28;20029;-92
2021/01/15 10:41:52;;;;;;;21.20;12.57;;;;;;;6.40;63.62;102103.28;5049665;28;20025;-83
2021/01/15 10:44:20;;;;;;;23.08;12.02;;;;;;;6.48;61.64;102103.97;5047311;28;20025;-83
2021/01/15 10:46:52;;;;;;;15.23;11.50;;;;;;;6.15;63.29;102098.63;5050946;28;20021;-84
2021/01/15 10:49:19;;;;;;;30.80;12.95;;;;;;;6.14;64.03;102094.28;5038694;28;20072;-84
2021/01/15 10:51:48;;;;;;;22.75;13.18;;;;;;;6.68;62.54;102104.34;5033450;28;20033;-82
2021/01/15 10:54:14;;;;;;;23.35;14.52;;;;;;;6.59;62.64;102088.91;5046454;28;20367;-82
2021/01/15 10:56:42;;;;;;;24.90;12.48;;;;;;;6.76;61.77;102088.50;5047648;28;20056;-83
2021/01/15 10:59:08;;;;;;;23.17;12.40;;;;;;;6.32;61.89;102085.22;5062592;22;20049;-85
2021/01/15 11:01:37;;;;;;;20.13;13.13;;;;;;;6.58;61.43;102087.19;5026957;28;20026;-85
2021/01/15 11:04:06;;;;;;;22.88;12.77;;;;;;;6.42;62.65;102085.84;5026400;28;20100;-85
2021/01/15 11:06:31;;;;;;;19.85;12.60;;;;;;;6.74;61.09;102069.41;5027330;28;20516;-85
2021/01/15 11:08:56;;;;;;;27.65;14.55;;;;;;;6.36;62.33;102079.03;5025216;28;20105;-83
2021/01/15 11:11:22;;;;;;;24.63;14.02;;;;;;;6.80;61.69;102078.84;5021284;28;20030;-83
2021/01/15 11:13:47;;;;;;;21.13;13.90;;;;;;;7.01;62.26;102082.63;5024659;28;20483;-83
2021/01/15 11:16:14;;;;;;;22.52;14.65;;;;;;;6.97;61.41;102068.81;5024764;28;20029;-83
2021/01/15 11:18:39;;;;;;;26.58;15.77;;;;;;;7.09;61.10;102058.03;5027779;28;20052;-82
2021/01/15 11:21:05;;;;;;;20.90;16.25;;;;;;;7.20;60.35;102059.50;5016205;28;20476;-83
2021/01/15 11:23:31;;;;;;;25.48;14.65;;;;;;;7.32;60.76;102048.72;5025432;28;20140;-83
2021/01/15 11:25:56;;;;;;;20.27;14.65;;;;;;;7.37;60.48;102049.44;5017964;28;20392;-82
2021/01/15 11:28:21;;;;;;;22.40;15.80;;;;;;;7.73;59.55;102051.88;5019891;28;20044;-83
2021/01/15 11:30:47;;;;;;;20.05;12.13;;;;;;;7.66;59.35;102055.56;5014193;28;20057;-82